Página principal
METAR-TAF:

METAR-TAF

Aeroportos :

Oremburgo, Rússia

latitude: 51-46-48N, longitude: 055-07-12E, altura: 109 m

Observação actual do tempo

O boletim foi feito há 44 minutos, às 19:30 UTC
Vento calmo
Temperatura -14°C
Humidade 78%
Pressão 1040 hPa
Visibilidade 10 km ou mais
sem nuvens abaixo de 1500 metros e sem cumulonimbus

METAR: UWOO 141930Z 00000MPS CAVOK M14/M17 Q1040 R26/60D NOSIG RMK QFE769/1025

Hora: 01:14 (20:14 UTC)

Previsão

O boletim foi feito há 3 horas e 27 minutos, às 16:47 UTC
Previsão válida de 14 às 18 UTC a 15 às 18 UTC
Vento 6 kt de norte com rajadas de 16 kt
Visibilidade 10 km ou mais
Nuvens dispersasa uma altura de 4000 ft
Temporariamente
de 14 às 18 UTC a 15 às 06 UTC
Vento 2 kt com direcção variável
Visibilidade: 3100 m
Nuvens fragmentadasa uma altura de 1100 ft
neblina

TAF: UWOO 141647Z 1418/1518 36003G08MPS 9999 SCT040 TXM00/1510Z TNM15/1503Z TEMPO 1418/1506 VRB01MPS 3100 BR BKN011

Observações e previsões do tempo de mais de 4000 aeroportos (mensagens METAR e TAF).

As estações disponíveis são os pontos amarelos e vermelhos sobre o mapa.

Mova o rato sobre o mapa para ver o nome da estação.

Depois clique no ponto para visualizar as observações e previsões meteorológicas.

Para alterar o mapa : clique nos botões verdes com uma cruz preta para aumentar o zoom; no botão verde com uma pitada de zoom; ou nas setas verdes para mapas adjacentes.


METAR-TAF: